sensor_id;sensor_type;location;lat;lon;timestamp;pressure;altitude;pressure_sealevel;temperature;humidity
48796;BME280;34607;48.520;-1.330;2023-02-28T08:08:04;101556.31;;;1.91;78.19
48796;BME280;34607;48.520;-1.330;2023-02-28T08:10:31;101555.69;;;2.19;77.32
48796;BME280;34607;48.520;-1.330;2023-02-28T08:12:59;101563.66;;;2.35;76.43
48796;BME280;34607;48.520;-1.330;2023-02-28T08:15:26;101559.16;;;2.44;76.52
48796;BME280;34607;48.520;-1.330;2023-02-28T08:17:53;101552.25;;;2.55;76.15
48796;BME280;34607;48.520;-1.330;2023-02-28T08:20:21;101553.56;;;2.75;75.83
48796;BME280;34607;48.520;-1.330;2023-02-28T08:22:49;101552.75;;;3.02;75.82
48796;BME280;34607;48.520;-1.330;2023-02-28T08:25:18;101544.63;;;3.21;74.87
48796;BME280;34607;48.520;-1.330;2023-02-28T08:27:45;101546.41;;;3.48;74.57
48796;BME280;34607;48.520;-1.330;2023-02-28T08:30:13;101549.34;;;3.68;73.97
48796;BME280;34607;48.520;-1.330;2023-02-28T08:32:41;101554.66;;;3.84;73.33
48796;BME280;34607;48.520;-1.330;2023-02-28T08:35:08;101555.53;;;3.98;72.71
48796;BME280;34607;48.520;-1.330;2023-02-28T08:37:36;101530.41;;;3.92;72.14
48796;BME280;34607;48.520;-1.330;2023-02-28T08:40:03;101557.97;;;4.38;72.51
48796;BME280;34607;48.520;-1.330;2023-02-28T08:42:33;101560.34;;;4.63;71.79
48796;BME280;34607;48.520;-1.330;2023-02-28T08:45:00;101557.91;;;4.80;71.30
48796;BME280;34607;48.520;-1.330;2023-02-28T08:47:27;101546.38;;;4.73;70.46
48796;BME280;34607;48.520;-1.330;2023-02-28T08:49:54;101559.06;;;4.85;70.37
48796;BME280;34607;48.520;-1.330;2023-02-28T08:52:21;101549.03;;;4.90;70.31
48796;BME280;34607;48.520;-1.330;2023-02-28T08:54:48;101554.09;;;5.03;70.49
48796;BME280;34607;48.520;-1.330;2023-02-28T08:57:16;101564.72;;;5.24;69.80
48796;BME280;34607;48.520;-1.330;2023-02-28T08:59:44;101566.91;;;5.33;69.25
48796;BME280;34607;48.520;-1.330;2023-02-28T09:02:13;101561.88;;;5.34;68.20
48796;BME280;34607;48.520;-1.330;2023-02-28T09:04:40;101553.44;;;5.52;68.73
48796;BME280;34607;48.520;-1.330;2023-02-28T09:07:07;101549.16;;;5.67;67.92
48796;BME280;34607;48.520;-1.330;2023-02-28T09:09:35;101543.75;;;5.94;67.86
48796;BME280;34607;48.520;-1.330;2023-02-28T09:12:02;101543.56;;;6.06;67.15
48796;BME280;34607;48.520;-1.330;2023-02-28T09:14:29;101543.44;;;6.35;66.92
48796;BME280;34607;48.520;-1.330;2023-02-28T09:16:58;101534.44;;;6.27;66.04
48796;BME280;34607;48.520;-1.330;2023-02-28T09:19:25;101496.25;;;6.18;65.98
48796;BME280;34607;48.520;-1.330;2023-02-28T09:21:52;101548.97;;;6.60;64.93
48796;BME280;34607;48.520;-1.330;2023-02-28T09:24:19;101551.06;;;6.67;64.48
48796;BME280;34607;48.520;-1.330;2023-02-28T09:26:46;101549.75;;;6.75;64.56
48796;BME280;34607;48.520;-1.330;2023-02-28T09:29:13;101549.53;;;6.70;63.55
48796;BME280;34607;48.520;-1.330;2023-02-28T09:31:42;101551.78;;;6.81;63.28
48796;BME280;34607;48.520;-1.330;2023-02-28T09:34:10;101558.03;;;6.86;62.59
48796;BME280;34607;48.520;-1.330;2023-02-28T09:36:37;101557.56;;;6.77;62.83
48796;BME280;34607;48.520;-1.330;2023-02-28T09:39:05;101550.66;;;6.75;62.38
48796;BME280;34607;48.520;-1.330;2023-02-28T09:41:38;101546.56;;;6.79;61.58
48796;BME280;34607;48.520;-1.330;2023-02-28T09:44:17;101546.84;;;6.85;61.76
48796;BME280;34607;48.520;-1.330;2023-02-28T09:46:50;101550.16;;;7.17;62.17
48796;BME280;34607;48.520;-1.330;2023-02-28T09:49:24;101546.94;;;7.57;61.47
48796;BME280;34607;48.520;-1.330;2023-02-28T09:51:56;101539.41;;;7.80;60.84
48796;BME280;34607;48.520;-1.330;2023-02-28T09:54:28;101541.63;;;7.90;59.55
48796;BME280;34607;48.520;-1.330;2023-02-28T09:56:59;101545.75;;;7.68;59.20
48796;BME280;34607;48.520;-1.330;2023-02-28T09:59:39;101543.78;;;7.63;58.04
48796;BME280;34607;48.520;-1.330;2023-02-28T10:02:30;101540.56;;;7.49;58.41
48796;BME280;34607;48.520;-1.330;2023-02-28T10:05:08;101534.13;;;7.41;57.98
48796;BME280;34607;48.520;-1.330;2023-02-28T10:07:42;101545.31;;;7.41;55.50
48796;BME280;34607;48.520;-1.330;2023-02-28T10:10:20;101557.75;;;7.50;57.24
48796;BME280;34607;48.520;-1.330;2023-02-28T10:12:51;101551.47;;;7.81;57.15
48796;BME280;34607;48.520;-1.330;2023-02-28T10:15:21;101536.00;;;7.81;56.69
48796;BME280;34607;48.520;-1.330;2023-02-28T10:17:54;101554.75;;;7.59;55.81
48796;BME280;34607;48.520;-1.330;2023-02-28T10:20:25;101552.38;;;7.81;56.37
48796;BME280;34607;48.520;-1.330;2023-02-28T10:23:05;101538.81;;;7.85;55.52
48796;BME280;34607;48.520;-1.330;2023-02-28T10:25:38;101542.44;;;8.09;56.06
48796;BME280;34607;48.520;-1.330;2023-02-28T10:28:10;101543.13;;;8.04;55.22
48796;BME280;34607;48.520;-1.330;2023-02-28T10:30:42;101483.59;;;7.62;55.46
48796;BME280;34607;48.520;-1.330;2023-02-28T10:33:18;101540.06;;;8.13;54.87
48796;BME280;34607;48.520;-1.330;2023-02-28T10:35:47;101529.81;;;7.95;54.16
48796;BME280;34607;48.520;-1.330;2023-02-28T10:38:17;101539.75;;;7.87;54.97
48796;BME280;34607;48.520;-1.330;2023-02-28T10:40:45;101533.50;;;8.00;54.72
48796;BME280;34607;48.520;-1.330;2023-02-28T10:43:20;101524.19;;;8.04;54.72
48796;BME280;34607;48.520;-1.330;2023-02-28T10:45:58;101530.66;;;8.33;54.29
48796;BME280;34607;48.520;-1.330;2023-02-28T10:48:37;101529.88;;;8.54;53.92
48796;BME280;34607;48.520;-1.330;2023-02-28T10:51:08;101516.97;;;9.15;54.25
48796;BME280;34607;48.520;-1.330;2023-02-28T10:53:39;101519.03;;;9.24;53.27
48796;BME280;34607;48.520;-1.330;2023-02-28T10:56:16;101519.41;;;9.33;52.95
48796;BME280;34607;48.520;-1.330;2023-02-28T10:58:51;101528.88;;;9.12;52.59
48796;BME280;34607;48.520;-1.330;2023-02-28T11:01:19;101525.47;;;9.13;51.67
48796;BME280;34607;48.520;-1.330;2023-02-28T11:03:47;101517.34;;;9.47;53.62
48796;BME280;34607;48.520;-1.330;2023-02-28T11:06:18;101510.97;;;9.37;52.77
48796;BME280;34607;48.520;-1.330;2023-02-28T11:08:49;101516.34;;;9.65;52.84
48796;BME280;34607;48.520;-1.330;2023-02-28T11:11:17;101505.41;;;9.49;51.76
48796;BME280;34607;48.520;-1.330;2023-02-28T11:13:47;101517.75;;;9.56;52.93
48796;BME280;34607;48.520;-1.330;2023-02-28T11:16:17;101513.81;;;9.89;53.06
48796;BME280;34607;48.520;-1.330;2023-02-28T11:18:48;101519.41;;;9.77;52.39
48796;BME280;34607;48.520;-1.330;2023-02-28T11:21:21;101516.94;;;9.80;52.32
48796;BME280;34607;48.520;-1.330;2023-02-28T11:23:51;101516.69;;;9.74;51.72
48796;BME280;34607;48.520;-1.330;2023-02-28T11:26:35;101506.47;;;9.54;52.41
48796;BME280;34607;48.520;-1.330;2023-02-28T11:29:10;101508.97;;;9.53;51.78
48796;BME280;34607;48.520;-1.330;2023-02-28T11:31:39;101497.28;;;9.63;52.11
48796;BME280;34607;48.520;-1.330;2023-02-28T11:34:23;101488.09;;;9.71;51.46
48796;BME280;34607;48.520;-1.330;2023-02-28T11:36:53;101490.22;;;9.81;52.16
48796;BME280;34607;48.520;-1.330;2023-02-28T11:39:23;101488.81;;;9.67;52.24
48796;BME280;34607;48.520;-1.330;2023-02-28T11:42:06;101460.25;;;9.64;51.83
48796;BME280;34607;48.520;-1.330;2023-02-28T11:44:47;101492.56;;;9.98;52.14
48796;BME280;34607;48.520;-1.330;2023-02-28T11:47:32;101490.47;;;10.11;51.45
48796;BME280;34607;48.520;-1.330;2023-02-28T11:50:15;101484.94;;;10.02;51.79
48796;BME280;34607;48.520;-1.330;2023-02-28T11:52:49;101472.03;;;10.26;51.53
48796;BME280;34607;48.520;-1.330;2023-02-28T11:55:23;101466.75;;;9.99;52.20
48796;BME280;34607;48.520;-1.330;2023-02-28T11:58:10;101475.00;;;9.66;52.10
48796;BME280;34607;48.520;-1.330;2023-02-28T12:00:57;101473.03;;;9.83;52.49
48796;BME280;34607;48.520;-1.330;2023-02-28T12:03:33;101452.97;;;10.00;52.02
48796;BME280;34607;48.520;-1.330;2023-02-28T12:06:16;101445.13;;;10.23;52.71
48796;BME280;34607;48.520;-1.330;2023-02-28T12:08:56;101421.59;;;10.15;52.28
48796;BME280;34607;48.520;-1.330;2023-02-28T12:11:32;101408.34;;;10.06;51.79
48796;BME280;34607;48.520;-1.330;2023-02-28T12:14:21;101450.84;;;9.66;52.09
48796;BME280;34607;48.520;-1.330;2023-02-28T12:16:59;101437.59;;;9.34;53.03
48796;BME280;34607;48.520;-1.330;2023-02-28T12:19:33;101421.13;;;9.54;52.28
48796;BME280;34607;48.520;-1.330;2023-02-28T12:22:15;101435.31;;;9.66;52.61
48796;BME280;34607;48.520;-1.330;2023-02-28T12:25:06;101433.78;;;9.71;52.52
48796;BME280;34607;48.520;-1.330;2023-02-28T12:27:46;101430.09;;;9.42;53.47
48796;BME280;34607;48.520;-1.330;2023-02-28T12:30:18;101394.19;;;9.04;53.65
48796;BME280;34607;48.520;-1.330;2023-02-28T12:32:49;101428.94;;;8.69;54.37
48796;BME280;34607;48.520;-1.330;2023-02-28T12:35:22;101428.19;;;8.50;55.05
48796;BME280;34607;48.520;-1.330;2023-02-28T12:37:57;101402.34;;;8.10;55.92
48796;BME280;34607;48.520;-1.330;2023-02-28T12:40:33;101419.28;;;8.43;56.32
48796;BME280;34607;48.520;-1.330;2023-02-28T12:43:08;101413.28;;;8.44;55.95
48796;BME280;34607;48.520;-1.330;2023-02-28T12:45:40;101401.38;;;8.47;56.34
48796;BME280;34607;48.520;-1.330;2023-02-28T12:48:12;101401.50;;;8.71;56.32
48796;BME280;34607;48.520;-1.330;2023-02-28T12:50:42;101391.47;;;8.78;56.35
48796;BME280;34607;48.520;-1.330;2023-02-28T12:53:15;101334.03;;;8.21;55.96
48796;BME280;34607;48.520;-1.330;2023-02-28T12:55:50;101396.41;;;8.72;56.63
48796;BME280;34607;48.520;-1.330;2023-02-28T12:58:31;101401.03;;;8.60;56.81
48796;BME280;34607;48.520;-1.330;2023-02-28T13:01:31;101394.28;;;8.42;57.10
48796;BME280;34607;48.520;-1.330;2023-02-28T13:10:12;101390.59;;;7.77;58.55
48796;BME280;34607;48.520;-1.330;2023-02-28T13:12:48;101374.38;;;7.60;58.46
48796;BME280;34607;48.520;-1.330;2023-02-28T13:15:19;101380.97;;;7.73;58.97
48796;BME280;34607;48.520;-1.330;2023-02-28T13:17:51;101380.69;;;7.67;58.95
48796;BME280;34607;48.520;-1.330;2023-02-28T13:20:20;101381.81;;;7.35;59.94
48796;BME280;34607;48.520;-1.330;2023-02-28T13:22:49;101384.13;;;7.10;60.77
48796;BME280;34607;48.520;-1.330;2023-02-28T13:25:51;101385.84;;;7.10;61.12
48796;BME280;34607;48.520;-1.330;2023-02-28T13:34:41;101386.81;;;6.94;62.06
48796;BME280;34607;48.520;-1.330;2023-02-28T13:37:36;101383.84;;;6.86;62.88
48796;BME280;34607;48.520;-1.330;2023-02-28T13:40:30;101367.31;;;6.81;63.07
48796;BME280;34607;48.520;-1.330;2023-02-28T13:43:03;101370.16;;;6.69;63.49
48796;BME280;34607;48.520;-1.330;2023-02-28T13:45:30;101368.94;;;6.79;63.62
48796;BME280;34607;48.520;-1.330;2023-02-28T13:48:15;101373.25;;;6.62;64.10
48796;BME280;34607;48.520;-1.330;2023-02-28T13:50:44;101373.34;;;6.64;64.44
48796;BME280;34607;48.520;-1.330;2023-02-28T13:56:44;101360.97;;;6.74;63.75
48796;BME280;34607;48.520;-1.330;2023-02-28T13:59:21;101355.44;;;6.49;64.86
48796;BME280;34607;48.520;-1.330;2023-02-28T14:02:17;101367.59;;;6.51;65.28
48796;BME280;34607;48.520;-1.330;2023-02-28T14:05:05;101357.94;;;6.29;66.61
48796;BME280;34607;48.520;-1.330;2023-02-28T14:07:38;101361.56;;;6.16;67.97
48796;BME280;34607;48.520;-1.330;2023-02-28T14:10:22;101315.63;;;5.90;68.21
48796;BME280;34607;48.520;-1.330;2023-02-28T14:13:03;101343.88;;;6.23;68.49
48796;BME280;34607;48.520;-1.330;2023-02-28T14:15:57;101359.66;;;6.12;70.15
48796;BME280;34607;48.520;-1.330;2023-02-28T14:18:28;101357.88;;;6.11;70.90
48796;BME280;34607;48.520;-1.330;2023-02-28T14:21:09;101354.25;;;6.08;70.49
48796;BME280;34607;48.520;-1.330;2023-02-28T14:23:53;101352.22;;;6.18;71.15
48796;BME280;34607;48.520;-1.330;2023-02-28T14:26:36;101349.53;;;5.99;72.06
48796;BME280;34607;48.520;-1.330;2023-02-28T14:29:23;101351.44;;;6.03;72.55
48796;BME280;34607;48.520;-1.330;2023-02-28T14:32:02;101352.72;;;6.11;72.81
48796;BME280;34607;48.520;-1.330;2023-02-28T14:34:41;101356.66;;;6.05;73.32
48796;BME280;34607;48.520;-1.330;2023-02-28T14:37:15;101350.50;;;6.01;74.44
48796;BME280;34607;48.520;-1.330;2023-02-28T14:39:45;101354.50;;;5.96;75.03
48796;BME280;34607;48.520;-1.330;2023-02-28T14:42:29;101355.31;;;5.78;75.98
48796;BME280;34607;48.520;-1.330;2023-02-28T14:44:57;101345.91;;;5.79;76.19
48796;BME280;34607;48.520;-1.330;2023-02-28T14:47:27;101346.31;;;5.87;75.95
48796;BME280;34607;48.520;-1.330;2023-02-28T14:49:55;101339.22;;;5.82;76.14
48796;BME280;34607;48.520;-1.330;2023-02-28T14:52:26;101341.09;;;5.69;77.51
48796;BME280;34607;48.520;-1.330;2023-02-28T14:54:56;101342.28;;;5.75;77.72
48796;BME280;34607;48.520;-1.330;2023-02-28T14:57:26;101327.19;;;5.65;78.51
48796;BME280;34607;48.520;-1.330;2023-02-28T15:00:01;101340.19;;;5.52;79.61
48796;BME280;34607;48.520;-1.330;2023-02-28T15:02:33;101349.69;;;5.53;79.96
48796;BME280;34607;48.520;-1.330;2023-02-28T15:05:22;101345.75;;;5.59;80.55
48796;BME280;34607;48.520;-1.330;2023-02-28T15:08:01;101329.38;;;5.57;80.92
48796;BME280;34607;48.520;-1.330;2023-02-28T15:10:29;101330.81;;;5.69;80.92
48796;BME280;34607;48.520;-1.330;2023-02-28T15:12:58;101332.91;;;5.76;80.18
48796;BME280;34607;48.520;-1.330;2023-02-28T15:15:35;101325.22;;;5.76;81.14
48796;BME280;34607;48.520;-1.330;2023-02-28T15:18:07;101319.66;;;5.68;81.60
48796;BME280;34607;48.520;-1.330;2023-02-28T15:20:39;101328.72;;;5.61;82.44
48796;BME280;34607;48.520;-1.330;2023-02-28T15:23:11;101327.69;;;5.58;83.05
48796;BME280;34607;48.520;-1.330;2023-02-28T15:25:40;101318.53;;;5.47;83.30
48796;BME280;34607;48.520;-1.330;2023-02-28T15:28:12;101308.09;;;5.60;82.93
48796;BME280;34607;48.520;-1.330;2023-02-28T15:30:51;101299.44;;;5.74;82.48
48796;BME280;34607;48.520;-1.330;2023-02-28T15:33:20;101299.09;;;5.68;83.31
48796;BME280;34607;48.520;-1.330;2023-02-28T15:35:48;101296.06;;;5.42;84.11
48796;BME280;34607;48.520;-1.330;2023-02-28T15:38:21;101272.41;;;5.32;85.12
48796;BME280;34607;48.520;-1.330;2023-02-28T15:40:51;101298.88;;;5.47;84.96
48796;BME280;34607;48.520;-1.330;2023-02-28T15:43:25;101286.25;;;5.52;84.73
48796;BME280;34607;48.520;-1.330;2023-02-28T15:45:56;101291.34;;;5.50;84.80
48796;BME280;34607;48.520;-1.330;2023-02-28T15:48:25;101288.19;;;5.56;84.34
48796;BME280;34607;48.520;-1.330;2023-02-28T15:50:56;101279.69;;;5.40;84.87
48796;BME280;34607;48.520;-1.330;2023-02-28T15:53:28;101255.38;;;5.34;84.51
48796;BME280;34607;48.520;-1.330;2023-02-28T15:56:02;101232.84;;;5.28;84.45
48796;BME280;34607;48.520;-1.330;2023-02-28T15:58:30;101283.53;;;5.65;84.49
48796;BME280;34607;48.520;-1.330;2023-02-28T16:01:19;101278.88;;;5.58;84.74
48796;BME280;34607;48.520;-1.330;2023-02-28T16:03:49;101289.47;;;5.48;85.49
48796;BME280;34607;48.520;-1.330;2023-02-28T16:06:34;101283.38;;;5.46;85.61
48796;BME280;34607;48.520;-1.330;2023-02-28T16:09:04;101277.91;;;5.56;85.90
48796;BME280;34607;48.520;-1.330;2023-02-28T16:11:35;101274.19;;;5.67;85.47
48796;BME280;34607;48.520;-1.330;2023-02-28T16:14:03;101255.28;;;5.49;85.71
48796;BME280;34607;48.520;-1.330;2023-02-28T16:16:31;101267.47;;;5.53;86.49
48796;BME280;34607;48.520;-1.330;2023-02-28T16:18:58;101259.94;;;5.56;86.80
48796;BME280;34607;48.520;-1.330;2023-02-28T16:21:25;101257.53;;;5.59;86.55
48796;BME280;34607;48.520;-1.330;2023-02-28T16:23:52;101251.50;;;5.58;86.84
48796;BME280;34607;48.520;-1.330;2023-02-28T16:26:23;101250.19;;;5.67;86.91
48796;BME280;34607;48.520;-1.330;2023-02-28T16:28:51;101230.81;;;5.55;86.45
48796;BME280;34607;48.520;-1.330;2023-02-28T16:31:19;101254.91;;;5.75;86.67
48796;BME280;34607;48.520;-1.330;2023-02-28T16:33:47;101251.41;;;5.73;86.82
48796;BME280;34607;48.520;-1.330;2023-02-28T16:36:16;101226.19;;;5.66;86.56
48796;BME280;34607;48.520;-1.330;2023-02-28T16:38:43;101245.91;;;5.84;86.48
48796;BME280;34607;48.520;-1.330;2023-02-28T16:41:12;101246.50;;;5.78;86.70
48796;BME280;34607;48.520;-1.330;2023-02-28T16:43:47;101239.66;;;5.78;86.57
48796;BME280;34607;48.520;-1.330;2023-02-28T16:46:15;101238.03;;;5.80;86.48
48796;BME280;34607;48.520;-1.330;2023-02-28T16:48:43;101222.00;;;5.68;86.75
48796;BME280;34607;48.520;-1.330;2023-02-28T16:51:15;101228.34;;;5.75;87.29
48796;BME280;34607;48.520;-1.330;2023-02-28T16:53:42;101230.38;;;5.64;87.40
48796;BME280;34607;48.520;-1.330;2023-02-28T16:56:15;101230.31;;;5.62;87.47
48796;BME280;34607;48.520;-1.330;2023-02-28T16:58:43;101221.84;;;5.65;87.95
48796;BME280;34607;48.520;-1.330;2023-02-28T17:01:11;101215.84;;;5.65;87.84
48796;BME280;34607;48.520;-1.330;2023-02-28T17:03:38;101207.34;;;5.66;88.02
48796;BME280;34607;48.520;-1.330;2023-02-28T17:06:09;101213.50;;;5.69;88.11
48796;BME280;34607;48.520;-1.330;2023-02-28T17:08:41;101215.25;;;5.70;88.45
48796;BME280;34607;48.520;-1.330;2023-02-28T17:11:08;101204.81;;;5.67;88.68
48796;BME280;34607;48.520;-1.330;2023-02-28T17:13:35;101213.34;;;5.66;88.76
48796;BME280;34607;48.520;-1.330;2023-02-28T17:16:03;101195.38;;;5.66;88.61
48796;BME280;34607;48.520;-1.330;2023-02-28T17:18:32;101200.78;;;5.72;88.89
48796;BME280;34607;48.520;-1.330;2023-02-28T17:21:00;101202.81;;;5.78;88.86
48796;BME280;34607;48.520;-1.330;2023-02-28T17:23:27;101200.44;;;5.82;88.84
48796;BME280;34607;48.520;-1.330;2023-02-28T17:25:55;101199.13;;;5.73;89.26
48796;BME280;34607;48.520;-1.330;2023-02-28T17:28:22;101188.53;;;5.67;89.39
48796;BME280;34607;48.520;-1.330;2023-02-28T17:30:49;101188.25;;;5.60;90.15
48796;BME280;34607;48.520;-1.330;2023-02-28T17:33:16;101163.28;;;5.41;90.54
48796;BME280;34607;48.520;-1.330;2023-02-28T17:35:44;101186.84;;;5.67;89.94
48796;BME280;34607;48.520;-1.330;2023-02-28T17:38:16;101182.53;;;5.66;90.31
48796;BME280;34607;48.520;-1.330;2023-02-28T17:40:43;101180.81;;;5.49;91.87
48796;BME280;34607;48.520;-1.330;2023-02-28T17:43:10;101185.78;;;5.46;91.83
48796;BME280;34607;48.520;-1.330;2023-02-28T17:45:38;101186.13;;;5.35;92.79
48796;BME280;34607;48.520;-1.330;2023-02-28T17:48:05;101191.53;;;5.41;92.38
48796;BME280;34607;48.520;-1.330;2023-02-28T17:50:32;101189.06;;;5.43;92.76
48796;BME280;34607;48.520;-1.330;2023-02-28T17:53:01;101189.06;;;5.43;92.96
48796;BME280;34607;48.520;-1.330;2023-02-28T17:55:28;101186.28;;;5.38;93.47
48796;BME280;34607;48.520;-1.330;2023-02-28T17:57:55;101183.06;;;5.42;93.42
48796;BME280;34607;48.520;-1.330;2023-02-28T18:00:22;101179.69;;;5.43;93.76
48796;BME280;34607;48.520;-1.330;2023-02-28T18:02:50;101181.75;;;5.51;93.32
48796;BME280;34607;48.520;-1.330;2023-02-28T18:05:17;101177.03;;;5.42;94.25
48796;BME280;34607;48.520;-1.330;2023-02-28T18:07:44;101177.75;;;5.39;94.42
48796;BME280;34607;48.520;-1.330;2023-02-28T18:10:15;101176.88;;;5.39;94.63
48796;BME280;34607;48.520;-1.330;2023-02-28T18:12:45;101181.34;;;5.43;94.27
48796;BME280;34607;48.520;-1.330;2023-02-28T18:15:13;101180.88;;;5.50;94.43
48796;BME280;34607;48.520;-1.330;2023-02-28T18:17:40;101157.19;;;5.21;95.11
48796;BME280;34607;48.520;-1.330;2023-02-28T18:20:08;101189.81;;;5.40;95.27
48796;BME280;34607;48.520;-1.330;2023-02-28T18:22:36;101192.13;;;5.36;95.09
48796;BME280;34607;48.520;-1.330;2023-02-28T18:25:04;101186.19;;;5.37;95.21
48796;BME280;34607;48.520;-1.330;2023-02-28T18:27:33;101194.16;;;5.25;95.29
48796;BME280;34607;48.520;-1.330;2023-02-28T18:30:01;101180.44;;;4.92;95.50
48796;BME280;34607;48.520;-1.330;2023-02-28T18:32:29;101192.84;;;4.67;96.22
48796;BME280;34607;48.520;-1.330;2023-02-28T18:34:56;101218.00;;;4.58;95.90
48796;BME280;34607;48.520;-1.330;2023-02-28T18:37:23;101224.31;;;4.17;95.43
48796;BME280;34607;48.520;-1.330;2023-02-28T18:39:51;101224.06;;;3.83;96.04
48796;BME280;34607;48.520;-1.330;2023-02-28T18:42:18;101226.25;;;3.77;96.21
48796;BME280;34607;48.520;-1.330;2023-02-28T18:44:48;101204.16;;;3.34;95.77
48796;BME280;34607;48.520;-1.330;2023-02-28T18:47:15;101229.50;;;3.29;96.10
48796;BME280;34607;48.520;-1.330;2023-02-28T18:49:43;101140.84;;;2.73;96.00
48796;BME280;34607;48.520;-1.330;2023-02-28T18:52:10;101219.81;;;3.10;96.41
48796;BME280;34607;48.520;-1.330;2023-02-28T18:54:37;101233.69;;;3.14;95.82
48796;BME280;34607;48.520;-1.330;2023-02-28T18:57:04;101234.59;;;3.01;95.71
48796;BME280;34607;48.520;-1.330;2023-02-28T18:59:31;101235.66;;;3.05;95.75
48796;BME280;34607;48.520;-1.330;2023-02-28T19:02:00;101233.72;;;3.00;95.99
48796;BME280;34607;48.520;-1.330;2023-02-28T19:04:27;101227.34;;;2.94;95.52
48796;BME280;34607;48.520;-1.330;2023-02-28T19:06:54;101232.84;;;3.00;95.62
48796;BME280;34607;48.520;-1.330;2023-02-28T19:09:21;101224.19;;;2.98;95.29
48796;BME280;34607;48.520;-1.330;2023-02-28T19:11:48;101224.97;;;2.97;95.29
48796;BME280;34607;48.520;-1.330;2023-02-28T19:14:15;101208.09;;;2.86;95.50
48796;BME280;34607;48.520;-1.330;2023-02-28T19:16:42;101223.41;;;2.99;95.68
48796;BME280;34607;48.520;-1.330;2023-02-28T19:19:11;101209.41;;;3.07;94.98
48796;BME280;34607;48.520;-1.330;2023-02-28T19:21:38;101212.94;;;3.09;95.27
48796;BME280;34607;48.520;-1.330;2023-02-28T19:24:05;101218.59;;;3.18;95.02
48796;BME280;34607;48.520;-1.330;2023-02-28T19:26:32;101210.31;;;3.23;94.80
48796;BME280;34607;48.520;-1.330;2023-02-28T19:29:01;101168.19;;;3.03;94.57
48796;BME280;34607;48.520;-1.330;2023-02-28T19:31:28;101201.25;;;3.28;95.12
48796;BME280;34607;48.520;-1.330;2023-02-28T19:33:55;101202.41;;;3.33;95.08
48796;BME280;34607;48.520;-1.330;2023-02-28T19:36:25;101166.50;;;3.03;94.86
48796;BME280;34607;48.520;-1.330;2023-02-28T19:38:53;101111.78;;;2.58;95.35
48796;BME280;34607;48.520;-1.330;2023-02-28T19:41:20;101199.06;;;3.06;95.91
48796;BME280;34607;48.520;-1.330;2023-02-28T19:43:47;101196.59;;;3.07;96.12
48796;BME280;34607;48.520;-1.330;2023-02-28T19:46:15;101185.06;;;3.14;96.18
48796;BME280;34607;48.520;-1.330;2023-02-28T19:48:43;101179.66;;;3.09;95.96
48796;BME280;34607;48.520;-1.330;2023-02-28T19:51:11;101160.84;;;2.94;95.50
48796;BME280;34607;48.520;-1.330;2023-02-28T19:53:41;101177.44;;;3.00;95.82
48796;BME280;34607;48.520;-1.330;2023-02-28T19:56:09;101184.06;;;2.97;96.49
48796;BME280;34607;48.520;-1.330;2023-02-28T19:58:37;101191.34;;;2.91;96.96
48796;BME280;34607;48.520;-1.330;2023-02-28T20:01:09;101198.47;;;2.81;97.68
48796;BME280;34607;48.520;-1.330;2023-02-28T20:03:36;101208.59;;;2.80;97.57
48796;BME280;34607;48.520;-1.330;2023-02-28T20:06:06;101209.13;;;2.74;98.05
48796;BME280;34607;48.520;-1.330;2023-02-28T20:08:35;101210.44;;;2.83;97.83
48796;BME280;34607;48.520;-1.330;2023-02-28T20:11:05;101212.22;;;2.84;97.22
48796;BME280;34607;48.520;-1.330;2023-02-28T20:13:32;101192.59;;;2.69;97.18
48796;BME280;34607;48.520;-1.330;2023-02-28T20:15:59;101219.34;;;2.74;97.41
48796;BME280;34607;48.520;-1.330;2023-02-28T20:18:27;101222.91;;;2.63;98.33
48796;BME280;34607;48.520;-1.330;2023-02-28T20:20:54;101203.44;;;2.52;98.39
48796;BME280;34607;48.520;-1.330;2023-02-28T20:23:21;101215.03;;;2.47;98.53
48796;BME280;34607;48.520;-1.330;2023-02-28T20:25:49;101239.13;;;2.63;97.95
48796;BME280;34607;48.520;-1.330;2023-02-28T20:28:18;101243.25;;;2.61;98.49
48796;BME280;34607;48.520;-1.330;2023-02-28T20:30:46;101213.69;;;2.38;98.14
48796;BME280;34607;48.520;-1.330;2023-02-28T20:33:14;101256.66;;;2.57;97.87
48796;BME280;34607;48.520;-1.330;2023-02-28T20:35:41;101255.56;;;2.54;98.29
48796;BME280;34607;48.520;-1.330;2023-02-28T20:38:09;101261.75;;;2.57;98.39
48796;BME280;34607;48.520;-1.330;2023-02-28T20:40:36;101266.88;;;2.57;98.33
48796;BME280;34607;48.520;-1.330;2023-02-28T20:43:03;101269.34;;;2.56;98.01
48796;BME280;34607;48.520;-1.330;2023-02-28T20:45:31;101267.94;;;2.61;97.88
48796;BME280;34607;48.520;-1.330;2023-02-28T20:48:00;101268.31;;;2.67;97.52
48796;BME280;34607;48.520;-1.330;2023-02-28T20:50:27;101270.31;;;2.58;96.96
48796;BME280;34607;48.520;-1.330;2023-02-28T20:52:54;101269.53;;;2.59;96.81
48796;BME280;34607;48.520;-1.330;2023-02-28T20:55:21;101270.09;;;2.55;96.66
48796;BME280;34607;48.520;-1.330;2023-02-28T20:57:48;101271.69;;;2.53;96.20
48796;BME280;34607;48.520;-1.330;2023-02-28T21:00:15;101268.81;;;2.48;96.35
48796;BME280;34607;48.520;-1.330;2023-02-28T21:02:46;101277.56;;;2.52;96.13
48796;BME280;34607;48.520;-1.330;2023-02-28T21:05:13;101275.22;;;2.55;95.36
48796;BME280;34607;48.520;-1.330;2023-02-28T21:07:41;101267.06;;;2.47;95.20
48796;BME280;34607;48.520;-1.330;2023-02-28T21:10:09;101276.19;;;2.57;95.57
48796;BME280;34607;48.520;-1.330;2023-02-28T21:12:37;101268.06;;;2.49;94.93
48796;BME280;34607;48.520;-1.330;2023-02-28T21:15:04;101264.41;;;2.46;94.99
48796;BME280;34607;48.520;-1.330;2023-02-28T21:17:32;101288.09;;;2.56;94.75
48796;BME280;34607;48.520;-1.330;2023-02-28T21:20:00;101284.19;;;2.35;94.60
48796;BME280;34607;48.520;-1.330;2023-02-28T21:22:28;101276.41;;;2.20;95.14
48796;BME280;34607;48.520;-1.330;2023-02-28T21:24:55;101295.69;;;2.28;95.50
48796;BME280;34607;48.520;-1.330;2023-02-28T21:27:22;101298.59;;;2.21;95.17
48796;BME280;34607;48.520;-1.330;2023-02-28T21:29:49;101298.03;;;2.25;95.82
48796;BME280;34607;48.520;-1.330;2023-02-28T21:32:16;101305.59;;;2.23;94.77
48796;BME280;34607;48.520;-1.330;2023-02-28T21:34:44;101286.59;;;2.06;94.48